Terminal Aerodrome Forecast
Issued by NWS Cleveland, OH

Home | Current Version | Previous Version | Text Only | Print | Product List | Glossary On
Versions: 1 2 3 4 5 6 7 8 9 10 11 12 13 14 15 16 17 18 19 20
000
FTUS41 KCLE 020500
TAFMFD
TAF
KMFD 020520Z 0206/0306 18008KT P6SM SCT100 BKN250
     FM021400 20015G25KT P6SM VCSH SCT050 OVC100
     FM021800 20020G30KT P6SM -SHRA SCT025 OVC050
     FM022100 20020G30KT 5SM -RA BR OVC025
     FM030000 20020G30KT 2SM -RA OVC008=

USA.gov is the U.S. government's official web portal to all federal, state and local government web resources and services.